createdAt,value
2024-03-03T00:00:25.944Z,100143.44
2024-03-03T00:01:27.743Z,100141.50
2024-03-03T00:02:29.514Z,100138.69
2024-03-03T00:03:32.533Z,100141.19
2024-03-03T00:04:36.149Z,100142.03
2024-03-03T00:05:37.793Z,100138.13
2024-03-03T00:06:39.488Z,100140.09
2024-03-03T00:07:41.095Z,100128.91
2024-03-03T00:08:42.699Z,100128.63
2024-03-03T00:09:46.580Z,100128.34
2024-03-03T00:10:48.303Z,100133.63
2024-03-03T00:11:49.938Z,100135.00
2024-03-03T00:12:51.576Z,100131.94
2024-03-03T00:13:53.189Z,100128.84
2024-03-03T00:14:54.812Z,100124.94
2024-03-03T00:15:56.758Z,100126.59
2024-03-03T00:16:58.522Z,100127.16
2024-03-03T00:18:00.244Z,100127.69
2024-03-03T00:19:01.896Z,100127.38
2024-03-03T00:20:06.035Z,100117.91
2024-03-03T00:21:14.915Z,100123.19
2024-03-03T00:22:16.834Z,100131.28
2024-03-03T00:23:18.487Z,100129.31
2024-03-03T00:24:20.103Z,100127.34
2024-03-03T00:25:21.730Z,100119.00
2024-03-03T00:26:23.554Z,100123.44
2024-03-03T00:27:26.616Z,100127.09
2024-03-03T00:28:28.630Z,100114.78
2024-03-03T00:29:30.289Z,100118.13
2024-03-03T00:30:31.910Z,100117.31
2024-03-03T00:31:33.491Z,100122.56
2024-03-03T00:32:35.083Z,100120.34
2024-03-03T00:33:36.951Z,100114.75
2024-03-03T00:34:38.733Z,100120.34
2024-03-03T00:35:40.379Z,100116.72
2024-03-03T00:36:42.084Z,100114.44
2024-03-03T00:37:43.718Z,100115.56
2024-03-03T00:38:45.659Z,100118.09
2024-03-03T00:39:47.274Z,100108.31
2024-03-03T00:40:48.947Z,100113.88
2024-03-03T00:41:50.594Z,100111.91
2024-03-03T00:42:52.460Z,100113.56
2024-03-03T00:43:54.102Z,100110.78
2024-03-03T00:44:55.711Z,100113.56
2024-03-03T00:45:57.413Z,100113.00
2024-03-03T00:46:59.050Z,100114.69
2024-03-03T00:48:00.980Z,100117.16
2024-03-03T00:49:02.901Z,100110.47
2024-03-03T00:50:05.853Z,100111.28
2024-03-03T00:51:07.460Z,100105.13
2024-03-03T00:52:09.115Z,100117.94
2024-03-03T00:53:10.774Z,100107.34
2024-03-03T00:54:12.552Z,100107.06
2024-03-03T00:55:14.173Z,100106.47
2024-03-03T00:56:15.789Z,100101.72
2024-03-03T00:57:17.393Z,100110.91
2024-03-03T00:58:19.427Z,100102.25
2024-03-03T00:59:21.162Z,100102.75
2024-03-03T01:00:22.790Z,100107.25
2024-03-03T01:01:24.453Z,100096.59
2024-03-03T01:02:26.290Z,100103.88
2024-03-03T01:03:30.961Z,100100.75
2024-03-03T01:04:32.584Z,100102.44
2024-03-03T01:05:34.550Z,100102.44
2024-03-03T01:06:36.235Z,100107.19
2024-03-03T01:07:42.875Z,100094.91
2024-03-03T01:08:44.954Z,100095.44
2024-03-03T01:09:46.579Z,100101.84
2024-03-03T01:10:48.225Z,100094.59
2024-03-03T01:11:54.808Z,100103.50
2024-03-03T01:12:56.966Z,100092.88
2024-03-03T01:13:58.671Z,100092.06
2024-03-03T01:15:00.348Z,100093.16
2024-03-03T01:16:02.071Z,100091.22
2024-03-03T01:17:03.856Z,100097.09
2024-03-03T01:18:05.548Z,100098.22
2024-03-03T01:19:07.386Z,100096.28
2024-03-03T01:20:09.644Z,100099.34
2024-03-03T01:21:11.341Z,100101.03
2024-03-03T01:22:13.096Z,100101.63
2024-03-03T01:23:15.504Z,100100.47
2024-03-03T01:24:17.119Z,100101.91
2024-03-03T01:25:19.241Z,100104.69
2024-03-03T01:26:20.874Z,100111.09
2024-03-03T01:27:23.012Z,100108.63
2024-03-03T01:28:24.676Z,100111.09
2024-03-03T01:29:26.342Z,100110.28
2024-03-03T01:30:27.970Z,100111.94
2024-03-03T01:31:29.598Z,100112.78
2024-03-03T01:32:31.749Z,100116.09
2024-03-03T01:33:33.396Z,100112.19
2024-03-03T01:34:35.097Z,100118.59
2024-03-03T01:35:36.900Z,100111.34
2024-03-03T01:36:38.527Z,100113.31
2024-03-03T01:37:40.173Z,100113.31
2024-03-03T01:38:42.183Z,100112.78
2024-03-03T01:39:43.835Z,100108.31
2024-03-03T01:40:51.749Z,100115.03
2024-03-03T01:41:53.343Z,100110.56
2024-03-03T01:42:57.028Z,100118.09
2024-03-03T01:43:59.379Z,100108.91
2024-03-03T01:45:01.072Z,100109.19
2024-03-03T01:46:03.253Z,100110.56
2024-03-03T01:47:05.773Z,100107.25
2024-03-03T01:48:08.695Z,100115.63
2024-03-03T01:49:13.966Z,100103.59
2024-03-03T01:50:15.787Z,100105.28
2024-03-03T01:51:18.187Z,100101.13
2024-03-03T01:52:20.000Z,100102.25
2024-03-03T01:53:22.552Z,100102.25
2024-03-03T01:54:24.316Z,100098.91
2024-03-03T01:55:26.410Z,100102.28
2024-03-03T01:56:30.127Z,100099.19
2024-03-03T01:57:32.781Z,100103.41
2024-03-03T01:58:35.089Z,100107.06
2024-03-03T01:59:37.977Z,100103.41
2024-03-03T02:00:39.860Z,100103.72
2024-03-03T02:01:43.387Z,100101.19
2024-03-03T02:02:45.341Z,100099.81
2024-03-03T02:03:48.008Z,100094.81
2024-03-03T02:04:49.649Z,100098.47
2024-03-03T02:05:51.626Z,100100.44
2024-03-03T02:06:56.596Z,100103.25
2024-03-03T02:07:58.394Z,100099.06
2024-03-03T02:09:00.102Z,100097.97
2024-03-03T02:10:03.226Z,100099.06
2024-03-03T02:11:05.314Z,100097.97
2024-03-03T02:12:07.188Z,100088.47
2024-03-03T02:13:12.329Z,100099.63
2024-03-03T02:14:14.266Z,100086.81
2024-03-03T02:15:15.862Z,100100.22
2024-03-03T02:16:18.450Z,100099.63
2024-03-03T02:17:20.229Z,100099.06
2024-03-03T02:18:21.853Z,100097.97
2024-03-03T02:19:23.865Z,100097.97
2024-03-03T02:20:25.652Z,100099.94
2024-03-03T02:21:27.271Z,100095.47
2024-03-03T02:22:28.904Z,100092.66
2024-03-03T02:23:30.586Z,100090.69
2024-03-03T02:24:32.189Z,100102.97
2024-03-03T02:25:34.025Z,100084.84
2024-03-03T02:26:36.415Z,100089.00
2024-03-03T02:27:38.675Z,100084.00
2024-03-03T02:28:42.398Z,100084.00
2024-03-03T02:29:44.696Z,100085.13
2024-03-03T02:30:46.362Z,100082.06
2024-03-03T02:31:49.029Z,100084.00
2024-03-03T02:32:51.552Z,100087.91
2024-03-03T02:33:53.231Z,100084.28
2024-03-03T02:34:54.860Z,100082.63
2024-03-03T02:35:56.528Z,100080.94
2024-03-03T02:36:58.153Z,100082.63
2024-03-03T02:37:59.769Z,100079.03
2024-03-03T02:39:01.403Z,100074.53
2024-03-03T02:40:04.666Z,100076.50
2024-03-03T02:41:06.360Z,100079.31
2024-03-03T02:42:08.037Z,100076.81
2024-03-03T02:43:09.766Z,100074.31
2024-03-03T02:44:11.376Z,100082.41
2024-03-03T02:45:12.992Z,100084.63
2024-03-03T02:46:14.997Z,100072.66
2024-03-03T02:47:16.754Z,100075.44
2024-03-03T02:48:19.512Z,100071.78
2024-03-03T02:49:21.316Z,100080.16
2024-03-03T02:50:23.241Z,100084.38
2024-03-03T02:51:27.782Z,100082.13
2024-03-03T02:52:29.499Z,100084.38
2024-03-03T02:53:31.201Z,100074.91
2024-03-03T02:54:32.795Z,100077.13
2024-03-03T02:55:34.404Z,100077.13
2024-03-03T02:56:36.025Z,100081.06
2024-03-03T02:57:40.090Z,100073.78
2024-03-03T02:58:43.005Z,100072.13
2024-03-03T02:59:44.747Z,100075.75
2024-03-03T03:00:46.615Z,100074.66
2024-03-03T03:01:48.394Z,100074.66
2024-03-03T03:02:50.067Z,100082.47
2024-03-03T03:03:51.753Z,100078.84
2024-03-03T03:04:53.676Z,100078.00
2024-03-03T03:05:55.345Z,100082.47
2024-03-03T03:06:57.299Z,100084.97
2024-03-03T03:07:58.949Z,100078.84
2024-03-03T03:09:00.613Z,100080.78
2024-03-03T03:10:02.268Z,100070.75
2024-03-03T03:11:05.993Z,100078.00
2024-03-03T03:12:07.653Z,100079.97
2024-03-03T03:13:09.438Z,100079.13
2024-03-03T03:14:11.079Z,100070.75
2024-03-03T03:15:12.684Z,100077.47
2024-03-03T03:16:14.451Z,100075.22
2024-03-03T03:17:16.058Z,100073.56
2024-03-03T03:18:18.333Z,100074.38
2024-03-03T03:19:20.746Z,100076.06
2024-03-03T03:20:22.454Z,100072.41
2024-03-03T03:21:27.892Z,100068.53
2024-03-03T03:22:30.361Z,100075.22
2024-03-03T03:23:32.017Z,100069.63
2024-03-03T03:24:33.632Z,100070.75
2024-03-03T03:25:35.234Z,100077.75
2024-03-03T03:26:36.865Z,100074.41
2024-03-03T03:27:38.737Z,100077.78
2024-03-03T03:28:42.623Z,100077.78
2024-03-03T03:29:44.859Z,100069.19
2024-03-03T03:30:46.502Z,100075.03
2024-03-03T03:31:48.134Z,100073.69
2024-03-03T03:32:49.790Z,100072.84
2024-03-03T03:33:51.590Z,100068.38
2024-03-03T03:34:53.256Z,100073.97
2024-03-03T03:35:54.867Z,100074.25
2024-03-03T03:36:56.612Z,100071.47
2024-03-03T03:37:58.307Z,100067.56
2024-03-03T03:39:00.485Z,100063.41
2024-03-03T03:40:10.618Z,100073.41
2024-03-03T03:41:12.437Z,100070.94
2024-03-03T03:42:14.068Z,100068.16
2024-03-03T03:43:15.830Z,100065.06
2024-03-03T03:44:19.966Z,100072.31
2024-03-03T03:45:21.625Z,100063.66
2024-03-03T03:46:23.358Z,100068.97
2024-03-03T03:47:25.041Z,100065.34
2024-03-03T03:48:26.653Z,100066.47
2024-03-03T03:49:29.240Z,100062.84
2024-03-03T03:50:30.828Z,100064.50
2024-03-03T03:51:32.438Z,100064.50
2024-03-03T03:52:34.207Z,100065.94
2024-03-03T03:53:35.801Z,100061.19
2024-03-03T03:54:37.651Z,100068.19
2024-03-03T03:55:39.413Z,100058.44
2024-03-03T03:56:41.132Z,100061.22
2024-03-03T03:57:42.772Z,100061.81
2024-03-03T03:58:44.445Z,100067.38
2024-03-03T03:59:46.053Z,100063.75
2024-03-03T04:00:47.880Z,100057.63
2024-03-03T04:01:49.720Z,100055.69
2024-03-03T04:02:51.394Z,100061.53
2024-03-03T04:03:53.167Z,100059.59
2024-03-03T04:04:54.814Z,100058.75
2024-03-03T04:05:56.400Z,100061.53
2024-03-03T04:06:58.002Z,100059.59
2024-03-03T04:07:59.664Z,100059.88
2024-03-03T04:09:04.207Z,100062.66
2024-03-03T04:10:06.733Z,100061.00
2024-03-03T04:11:09.373Z,100062.13
2024-03-03T04:12:11.364Z,100061.00
2024-03-03T04:13:13.021Z,100061.00
2024-03-03T04:14:14.641Z,100053.75
2024-03-03T04:15:16.677Z,100064.91
2024-03-03T04:16:21.639Z,100063.25
2024-03-03T04:17:23.297Z,100059.63
2024-03-03T04:18:26.006Z,100060.47
2024-03-03T04:19:29.238Z,100052.09
2024-03-03T04:20:30.875Z,100054.88
2024-03-03T04:21:32.474Z,100059.63
2024-03-03T04:22:34.273Z,100050.44
2024-03-03T04:23:37.684Z,100057.94
2024-03-03T04:24:39.286Z,100049.59
2024-03-03T04:25:40.925Z,100057.13
2024-03-03T04:26:43.441Z,100057.94
2024-03-03T04:27:45.178Z,100057.13
2024-03-03T04:28:46.827Z,100055.47
2024-03-03T04:29:49.065Z,100056.56
2024-03-03T04:30:51.366Z,100051.00
2024-03-03T04:31:54.699Z,100053.78
2024-03-03T04:32:56.348Z,100056.03
2024-03-03T04:33:58.683Z,100063.84
2024-03-03T04:35:04.096Z,100062.19
2024-03-03T04:36:15.684Z,100059.09
2024-03-03T04:37:17.425Z,100059.94
2024-03-03T04:38:19.072Z,100058.28
2024-03-03T04:39:20.665Z,100057.16
2024-03-03T04:40:22.471Z,100059.94
2024-03-03T04:41:24.127Z,100055.22
2024-03-03T04:42:25.971Z,100059.66
2024-03-03T04:43:27.568Z,100063.28
2024-03-03T04:44:32.591Z,100057.69
2024-03-03T04:45:34.249Z,100060.47
2024-03-03T04:46:35.936Z,100060.22
2024-03-03T04:47:37.646Z,100049.34
2024-03-03T04:48:40.191Z,100062.13
2024-03-03T04:49:41.958Z,100059.66
2024-03-03T04:50:43.598Z,100050.16
2024-03-03T04:51:45.207Z,100059.06
2024-03-03T04:52:46.897Z,100048.19
2024-03-03T04:53:48.519Z,100051.84
2024-03-03T04:54:50.146Z,100051.84
2024-03-03T04:55:51.762Z,100047.94
2024-03-03T04:56:53.363Z,100051.53
2024-03-03T04:57:56.402Z,100051.53
2024-03-03T04:58:59.189Z,100050.44
2024-03-03T05:00:00.915Z,100050.97
2024-03-03T05:01:02.716Z,100053.47
2024-03-03T05:02:04.901Z,100051.50
2024-03-03T05:03:06.728Z,100056.81
2024-03-03T05:04:08.467Z,100054.03
2024-03-03T05:05:10.531Z,100054.31
2024-03-03T05:06:12.134Z,100053.16
2024-03-03T05:07:13.934Z,100051.50
2024-03-03T05:08:15.618Z,100053.16
2024-03-03T05:09:17.426Z,100048.97
2024-03-03T05:10:19.120Z,100052.88
2024-03-03T05:11:20.884Z,100058.19
2024-03-03T05:12:22.497Z,100060.13
2024-03-03T05:13:24.157Z,100056.50
2024-03-03T05:14:25.791Z,100046.19
2024-03-03T05:15:27.382Z,100060.13
2024-03-03T05:16:29.051Z,100062.63
2024-03-03T05:17:30.709Z,100060.97
2024-03-03T05:18:32.390Z,100060.66
2024-03-03T05:19:34.003Z,100050.66
2024-03-03T05:20:35.591Z,100059.84
2024-03-03T05:21:37.256Z,100060.13
2024-03-03T05:22:38.878Z,100054.53
2024-03-03T05:23:40.497Z,100060.97
2024-03-03T05:24:42.364Z,100062.63
2024-03-03T05:25:44.304Z,100060.97
2024-03-03T05:26:45.916Z,100059.84
2024-03-03T05:27:47.710Z,100063.75
2024-03-03T05:28:50.146Z,100061.81
2024-03-03T05:29:52.427Z,100060.44
2024-03-03T05:30:54.103Z,100064.03
2024-03-03T05:31:56.017Z,100060.13
2024-03-03T05:32:57.801Z,100062.09
2024-03-03T05:33:59.495Z,100061.25
2024-03-03T05:35:01.133Z,100058.47
2024-03-03T05:36:02.766Z,100063.22
2024-03-03T05:37:04.423Z,100064.88
2024-03-03T05:38:06.108Z,100067.97
2024-03-03T05:39:08.031Z,100063.22
2024-03-03T05:40:10.191Z,100057.63
2024-03-03T05:41:11.875Z,100066.84
2024-03-03T05:42:13.496Z,100068.47
2024-03-03T05:43:15.182Z,100070.44
2024-03-03T05:44:16.797Z,100066.00
2024-03-03T05:45:18.599Z,100074.38
2024-03-03T05:46:20.250Z,100074.38
2024-03-03T05:47:21.898Z,100074.38
2024-03-03T05:48:23.502Z,100077.44
2024-03-03T05:49:25.231Z,100069.91
2024-03-03T05:50:26.879Z,100082.19
2024-03-03T05:51:28.464Z,100074.94
2024-03-03T05:52:31.191Z,100073.81
2024-03-03T05:53:32.834Z,100083.84
2024-03-03T05:54:34.464Z,100077.44
2024-03-03T05:55:37.194Z,100081.06
2024-03-03T05:56:39.323Z,100072.69
2024-03-03T05:57:41.081Z,100077.16
2024-03-03T05:58:43.658Z,100083.28
2024-03-03T05:59:46.231Z,100077.72
2024-03-03T06:00:48.186Z,100082.97
2024-03-03T06:01:50.312Z,100081.84
2024-03-03T06:02:52.076Z,100078.78
2024-03-03T06:03:53.688Z,100073.19
2024-03-03T06:04:55.273Z,100079.59
2024-03-03T06:05:56.891Z,100075.72
2024-03-03T06:06:58.524Z,100069.28
2024-03-03T06:08:00.126Z,100076.53
2024-03-03T06:09:01.737Z,100078.19
2024-03-03T06:10:05.321Z,100076.25
2024-03-03T06:11:07.937Z,100077.09
2024-03-03T06:12:09.690Z,100079.88
2024-03-03T06:13:11.340Z,100087.13
2024-03-03T06:14:15.676Z,100082.91
2024-03-03T06:15:17.464Z,100079.31
2024-03-03T06:16:19.158Z,100082.59
2024-03-03T06:17:20.807Z,100080.69
2024-03-03T06:18:22.451Z,100075.63
2024-03-03T06:19:24.093Z,100084.00
2024-03-03T06:20:25.933Z,100082.06
2024-03-03T06:21:27.619Z,100082.06
2024-03-03T06:22:29.246Z,100083.97
2024-03-03T06:23:30.855Z,100075.91
2024-03-03T06:24:32.691Z,100080.06
2024-03-03T06:25:34.347Z,100074.50
2024-03-03T06:26:36.241Z,100080.06
2024-03-03T06:27:37.898Z,100078.09
2024-03-03T06:28:39.605Z,100078.94
2024-03-03T06:29:41.221Z,100077.78
2024-03-03T06:30:44.106Z,100080.31
2024-03-03T06:31:46.811Z,100080.31
2024-03-03T06:32:48.465Z,100089.22
2024-03-03T06:33:50.192Z,100083.94
2024-03-03T06:34:51.993Z,100086.72
2024-03-03T06:35:53.600Z,100084.75
2024-03-03T06:36:55.238Z,100087.25
2024-03-03T06:37:57.000Z,100086.13
2024-03-03T06:38:58.621Z,100088.63
2024-03-03T06:40:00.539Z,100089.47
2024-03-03T06:41:02.279Z,100090.84
2024-03-03T06:42:03.955Z,100088.88
2024-03-03T06:43:05.627Z,100089.72
2024-03-03T06:44:07.369Z,100086.91
2024-03-03T06:45:09.855Z,100082.16
2024-03-03T06:46:12.088Z,100091.09
2024-03-03T06:47:13.783Z,100087.16
2024-03-03T06:48:15.675Z,100092.47
2024-03-03T06:49:17.398Z,100095.25
2024-03-03T06:50:19.081Z,100091.03
2024-03-03T06:51:20.813Z,100084.88
2024-03-03T06:52:22.729Z,100085.19
2024-03-03T06:53:24.350Z,100086.84
2024-03-03T06:54:25.957Z,100089.63
2024-03-03T06:55:30.472Z,100086.00
2024-03-03T06:56:32.382Z,100083.75
2024-03-03T06:57:33.993Z,100080.69
2024-03-03T06:58:35.588Z,100089.88
2024-03-03T06:59:39.250Z,100082.06
2024-03-03T07:00:40.921Z,100078.13
2024-03-03T07:01:42.911Z,100078.94
2024-03-03T07:03:14.120Z,100087.03
2024-03-03T07:04:27.885Z,100081.19
2024-03-03T07:05:29.554Z,100079.22
2024-03-03T07:06:31.331Z,100085.63
2024-03-03T07:07:33.074Z,100082.56
2024-03-03T07:08:34.699Z,100088.97
2024-03-03T07:09:37.922Z,100080.28
2024-03-03T07:10:39.522Z,100085.59
2024-03-03T07:11:42.126Z,100088.38
2024-03-03T07:12:43.939Z,100089.22
2024-03-03T07:13:45.565Z,100079.69
2024-03-03T07:14:47.169Z,100088.63
2024-03-03T07:15:48.814Z,100084.72
2024-03-03T07:16:51.015Z,100086.06
2024-03-03T07:17:52.703Z,100090.53
2024-03-03T07:18:54.369Z,100085.50
2024-03-03T07:19:55.986Z,100086.00
2024-03-03T07:20:57.603Z,100083.78
2024-03-03T07:21:59.743Z,100083.78
2024-03-03T07:23:01.403Z,100091.00
2024-03-03T07:24:03.137Z,100088.22
2024-03-03T07:25:05.498Z,100089.59
2024-03-03T07:26:07.513Z,100090.44
2024-03-03T07:27:09.315Z,100088.47
2024-03-03T07:28:11.249Z,100090.13
2024-03-03T07:29:12.952Z,100091.50
2024-03-03T07:30:14.550Z,100088.72
2024-03-03T07:31:16.160Z,100085.94
2024-03-03T07:32:18.274Z,100085.34
2024-03-03T07:33:19.926Z,100092.00
2024-03-03T07:34:21.998Z,100092.84
2024-03-03T07:35:23.657Z,100079.09
2024-03-03T07:36:25.351Z,100082.72
2024-03-03T07:37:27.980Z,100080.47
2024-03-03T07:38:29.607Z,100076.25
2024-03-03T07:39:31.581Z,100077.91
2024-03-03T07:40:38.108Z,100081.47
2024-03-03T07:41:39.717Z,100091.56
2024-03-03T07:42:42.443Z,100087.03
2024-03-03T07:43:44.099Z,100086.44
2024-03-03T07:44:45.721Z,100091.72
2024-03-03T07:45:47.362Z,100082.75
2024-03-03T07:46:49.039Z,100089.41
2024-03-03T07:47:50.748Z,100077.94
2024-03-03T07:48:53.305Z,100082.63
2024-03-03T07:49:55.724Z,100095.69
2024-03-03T07:50:57.388Z,100089.81
2024-03-03T07:51:59.083Z,100089.78
2024-03-03T07:53:00.884Z,100095.63
2024-03-03T07:54:02.500Z,100088.59
2024-03-03T07:55:04.251Z,100090.50
2024-03-03T07:56:06.249Z,100089.91
2024-03-03T07:57:08.230Z,100090.13
2024-03-03T07:58:10.179Z,100082.50
2024-03-03T07:59:11.892Z,100087.50
2024-03-03T08:00:14.188Z,100090.00
2024-03-03T08:01:15.866Z,100091.06
2024-03-03T08:02:17.515Z,100088.78
2024-03-03T08:03:19.446Z,100092.66
2024-03-03T08:04:21.768Z,100092.66
2024-03-03T08:05:23.507Z,100085.09
2024-03-03T08:06:28.039Z,100084.50
2024-03-03T08:07:31.209Z,100090.31
2024-03-03T08:08:32.856Z,100088.88
2024-03-03T08:09:34.468Z,100085.81
2024-03-03T08:10:36.109Z,100090.78
2024-03-03T08:11:37.763Z,100082.63
2024-03-03T08:12:39.461Z,100083.16
2024-03-03T08:13:41.070Z,100078.91
2024-03-03T08:14:42.712Z,100078.31
2024-03-03T08:15:44.450Z,100080.50
2024-03-03T08:16:46.110Z,100080.50
2024-03-03T08:17:47.850Z,100076.28
2024-03-03T08:18:49.537Z,100077.63
2024-03-03T08:19:51.161Z,100081.25
2024-03-03T08:20:52.747Z,100080.94
2024-03-03T08:21:54.444Z,100080.03
2024-03-03T08:22:56.248Z,100080.25
2024-03-03T08:23:58.951Z,100081.41
2024-03-03T08:25:00.822Z,100077.38
2024-03-03T08:26:02.478Z,100075.44
2024-03-03T08:27:04.598Z,100072.03
2024-03-03T08:28:06.770Z,100075.03
2024-03-03T08:29:08.695Z,100078.38
2024-03-03T08:30:13.139Z,100074.94
2024-03-03T08:31:14.903Z,100074.34
2024-03-03T08:32:16.531Z,100075.69
2024-03-03T08:33:18.187Z,100078.41
2024-03-03T08:34:19.901Z,100074.75
2024-03-03T08:35:21.533Z,100075.28
2024-03-03T08:36:23.256Z,100071.38
2024-03-03T08:37:24.955Z,100065.97
2024-03-03T08:38:26.831Z,100070.97
2024-03-03T08:39:28.442Z,100079.56
2024-03-03T08:40:30.145Z,100072.31
2024-03-03T08:41:33.024Z,100073.69
2024-03-03T08:42:34.880Z,100075.03
2024-03-03T08:43:36.490Z,100076.69
2024-03-03T08:44:38.145Z,100074.72
2024-03-03T08:45:39.750Z,100074.41
2024-03-03T08:46:41.356Z,100074.94
2024-03-03T08:47:43.684Z,100069.84
2024-03-03T08:48:45.343Z,100072.06
2024-03-03T08:49:46.967Z,100074.53
2024-03-03T08:50:52.587Z,100069.25
2024-03-03T08:51:56.494Z,100070.91
2024-03-03T08:52:58.500Z,100072.06
2024-03-03T08:54:00.112Z,100075.06
2024-03-03T08:55:01.792Z,100066.66
2024-03-03T08:56:03.504Z,100066.97
2024-03-03T08:57:08.450Z,100068.31
2024-03-03T08:58:12.332Z,100058.47
2024-03-03T08:59:13.974Z,100065.13
2024-03-03T09:00:16.039Z,100065.88
2024-03-03T09:01:18.073Z,100065.88
2024-03-03T09:02:19.824Z,100062.22
2024-03-03T09:03:21.500Z,100061.63
2024-03-03T09:04:23.189Z,100063.56
2024-03-03T09:05:24.834Z,100064.09
2024-03-03T09:06:27.248Z,100062.13
2024-03-03T09:07:28.953Z,100063.22
2024-03-03T09:08:30.988Z,100069.34
2024-03-03T09:09:32.731Z,100069.00
2024-03-03T09:10:34.434Z,100066.41
2024-03-03T09:11:36.172Z,100057.38
2024-03-03T09:12:38.232Z,100068.00
2024-03-03T09:13:39.888Z,100052.81
2024-03-03T09:14:41.595Z,100060.41
2024-03-03T09:15:43.330Z,100053.34
2024-03-03T09:16:44.975Z,100055.53
2024-03-03T09:17:46.919Z,100048.47
2024-03-03T09:18:50.480Z,100055.44
2024-03-03T09:19:52.127Z,100059.25
2024-03-03T09:20:53.800Z,100058.97
2024-03-03T09:21:55.461Z,100058.34
2024-03-03T09:22:57.084Z,100053.56
2024-03-03T09:23:59.223Z,100056.34
2024-03-03T09:25:01.403Z,100058.00
2024-03-03T09:26:03.290Z,100052.41
2024-03-03T09:27:04.905Z,100045.97
2024-03-03T09:28:07.216Z,100056.34
2024-03-03T09:29:08.893Z,100052.41
2024-03-03T09:30:11.653Z,100059.06
2024-03-03T09:31:15.371Z,100048.03
2024-03-03T09:32:17.002Z,100055.63
2024-03-03T09:33:18.680Z,100046.91
2024-03-03T09:34:20.482Z,100051.66
2024-03-03T09:35:23.104Z,100054.06
2024-03-03T09:36:24.764Z,100038.38
2024-03-03T09:37:26.414Z,100044.50
2024-03-03T09:38:28.034Z,100038.88
2024-03-03T09:39:30.119Z,100043.03
2024-03-03T09:40:34.619Z,100042.41
2024-03-03T09:41:36.309Z,100045.09
2024-03-03T09:42:39.047Z,100042.00
2024-03-03T09:43:44.204Z,100046.66
2024-03-03T09:44:46.114Z,100045.19
2024-03-03T09:45:51.838Z,100049.97
2024-03-03T09:46:54.519Z,100049.97
2024-03-03T09:47:57.093Z,100046.34
2024-03-03T09:48:58.871Z,100048.81
2024-03-03T09:50:01.434Z,100047.88
2024-03-03T09:51:03.112Z,100048.06
2024-03-03T09:52:09.669Z,100050.06
2024-03-03T09:53:11.382Z,100046.94
2024-03-03T09:54:15.312Z,100046.31
2024-03-03T09:55:17.581Z,100049.94
2024-03-03T09:56:21.637Z,100042.88
2024-03-03T09:57:23.674Z,100052.13
2024-03-03T09:58:25.758Z,100054.63
2024-03-03T09:59:27.502Z,100051.19
2024-03-03T10:00:29.123Z,100056.47
2024-03-03T10:01:32.256Z,100042.31
2024-03-03T10:02:38.356Z,100050.94
2024-03-03T10:03:42.645Z,100049.78
2024-03-03T10:04:49.489Z,100040.22
2024-03-03T10:05:52.547Z,100039.91
2024-03-03T10:06:56.992Z,100041.25
2024-03-03T10:08:03.388Z,100042.38
2024-03-03T10:09:13.252Z,100044.69
2024-03-03T10:10:19.888Z,100049.69
2024-03-03T10:11:24.484Z,100050.16
2024-03-03T10:12:28.039Z,100042.91
2024-03-03T10:13:32.372Z,100045.72
2024-03-03T10:14:34.562Z,100049.03
2024-03-03T10:15:37.553Z,100039.16
2024-03-03T10:16:39.473Z,100046.59
2024-03-03T10:17:41.613Z,100038.81
2024-03-03T10:18:43.746Z,100039.16
2024-03-03T10:19:45.520Z,100037.69
2024-03-03T10:20:48.244Z,100035.53
2024-03-03T10:21:55.963Z,100039.16
2024-03-03T10:22:57.811Z,100034.38
2024-03-03T10:24:22.190Z,100032.91
2024-03-03T10:25:25.810Z,100033.06
2024-03-03T10:26:36.238Z,100028.81
2024-03-03T10:27:49.480Z,100034.81
2024-03-03T10:29:04.313Z,100026.88
2024-03-03T10:30:08.445Z,100031.03
2024-03-03T10:31:14.534Z,100025.28
2024-03-03T10:32:16.206Z,100022.22
2024-03-03T10:33:18.976Z,100025.53
2024-03-03T10:34:22.153Z,100031.63
2024-03-03T10:35:23.833Z,100021.94
2024-03-03T10:36:25.460Z,100018.69
2024-03-03T10:37:27.967Z,100011.59
2024-03-03T10:38:31.005Z,100024.03
2024-03-03T10:39:36.937Z,100022.34
2024-03-03T10:40:39.093Z,100023.50
2024-03-03T10:41:40.971Z,100027.97
2024-03-03T10:42:43.082Z,100025.50
2024-03-03T10:43:44.734Z,100028.97
2024-03-03T10:44:46.374Z,100023.34
2024-03-03T10:45:48.039Z,100028.09
2024-03-03T10:46:49.697Z,100024.47
2024-03-03T10:47:51.831Z,100026.63
2024-03-03T10:48:56.242Z,100021.34
2024-03-03T10:49:58.002Z,100017.38
2024-03-03T10:50:59.607Z,100015.41
2024-03-03T10:52:01.515Z,100023.00
2024-03-03T10:53:04.282Z,100017.06
2024-03-03T10:54:06.642Z,100019.41
2024-03-03T10:55:11.117Z,100016.09
2024-03-03T10:56:14.719Z,100014.94
2024-03-03T10:57:18.867Z,100016.59
2024-03-03T10:58:22.689Z,100019.53
2024-03-03T10:59:24.817Z,100012.44
2024-03-03T11:00:28.307Z,100012.28
2024-03-03T11:01:30.498Z,100020.38
2024-03-03T11:02:34.747Z,100015.59
2024-03-03T11:03:38.011Z,100014.44
2024-03-03T11:04:40.383Z,100014.56
2024-03-03T11:05:43.160Z,100015.53
2024-03-03T11:06:45.704Z,100020.31
2024-03-03T11:07:47.330Z,100008.59
2024-03-03T11:08:53.285Z,100012.22
2024-03-03T11:09:57.096Z,100017.84
2024-03-03T11:11:05.022Z,100014.00
2024-03-03T11:12:07.934Z,100005.59
2024-03-03T11:13:12.249Z,100004.44
2024-03-03T11:14:14.186Z,100007.91
2024-03-03T11:15:20.796Z,100015.16
2024-03-03T11:16:31.435Z,100009.41
2024-03-03T11:17:39.729Z,100009.09
2024-03-03T11:18:48.812Z,100005.16
2024-03-03T11:19:51.576Z,100003.97
2024-03-03T11:20:56.444Z,100007.31
2024-03-03T11:22:02.343Z,100003.84
2024-03-03T11:23:31.595Z,100002.69
2024-03-03T11:24:41.508Z,100010.47
2024-03-03T11:26:10.042Z,100007.00
2024-03-03T11:27:15.997Z,99999.44
2024-03-03T11:28:24.139Z,99995.16
2024-03-03T11:29:25.913Z,99995.16
2024-03-03T11:30:28.248Z,99994.50
2024-03-03T11:31:30.427Z,99993.03
2024-03-03T11:32:35.193Z,99989.22
2024-03-03T11:33:38.817Z,99987.56
2024-03-03T11:34:45.410Z,99992.03
2024-03-03T11:35:48.058Z,99988.91
2024-03-03T11:36:49.732Z,99978.88
2024-03-03T11:37:51.354Z,99981.69
2024-03-03T11:38:56.773Z,99970.59
2024-03-03T11:40:02.449Z,99972.44
2024-03-03T11:41:04.333Z,99978.88
2024-03-03T11:42:23.010Z,99972.44
2024-03-03T11:43:26.702Z,99971.28
2024-03-03T11:44:37.442Z,99968.47
2024-03-03T11:45:45.081Z,99968.97
2024-03-03T11:46:50.765Z,99966.34
2024-03-03T11:47:52.667Z,99968.50
2024-03-03T11:48:58.803Z,99967.53
2024-03-03T11:50:01.387Z,99960.41
2024-03-03T11:51:30.414Z,99963.22
2024-03-03T11:52:43.136Z,99968.69
2024-03-03T11:53:44.772Z,99961.41
2024-03-03T11:54:46.408Z,99967.53
2024-03-03T11:55:52.410Z,99960.94